createdAt,value
2022-11-05T00:00:35.459Z,8.81
2022-11-05T00:03:20.583Z,8.75
2022-11-05T00:06:09.765Z,8.74
2022-11-05T00:08:55.168Z,8.73
2022-11-05T00:11:45.037Z,8.87
2022-11-05T00:14:30.705Z,8.86
2022-11-05T00:16:57.191Z,8.87
2022-11-05T00:19:23.907Z,8.87
2022-11-05T00:22:08.935Z,8.83
2022-11-05T00:24:54.477Z,8.79
2022-11-05T00:27:20.966Z,8.79
2022-11-05T00:29:47.478Z,8.77
2022-11-05T00:32:14.021Z,8.77
2022-11-05T00:34:40.629Z,8.81
2022-11-05T00:37:07.173Z,8.92
2022-11-05T00:39:33.709Z,9.23
2022-11-05T00:42:18.720Z,9.48
2022-11-05T00:45:03.742Z,9.65
2022-11-05T00:47:50.445Z,9.82
2022-11-05T00:50:18.299Z,9.79
2022-11-05T00:52:57.575Z,9.83
2022-11-05T00:55:29.108Z,9.91
2022-11-05T00:57:57.164Z,9.85
2022-11-05T01:00:24.933Z,9.78
2022-11-05T01:02:51.546Z,9.68
2022-11-05T01:05:18.432Z,9.58
2022-11-05T01:07:45.010Z,9.52
2022-11-05T01:10:11.516Z,9.52
2022-11-05T01:12:38.037Z,9.53
2022-11-05T01:15:05.080Z,9.54
2022-11-05T01:17:31.569Z,9.56
2022-11-05T01:19:58.053Z,9.66
2022-11-05T01:22:24.569Z,9.88
2022-11-05T01:24:51.078Z,10.13
2022-11-05T01:27:17.627Z,10.28
2022-11-05T01:29:44.175Z,10.39
2022-11-05T01:32:10.737Z,10.41
2022-11-05T01:34:37.260Z,10.38
2022-11-05T01:37:03.769Z,10.31
2022-11-05T01:39:30.363Z,10.19
2022-11-05T01:41:58.723Z,9.92
2022-11-05T01:44:52.394Z,9.64
2022-11-05T01:47:42.945Z,9.39
2022-11-05T01:50:31.342Z,9.19
2022-11-05T01:53:15.787Z,9.05
2022-11-05T01:55:47.783Z,8.94
2022-11-05T01:58:21.308Z,8.82
2022-11-05T02:00:48.370Z,8.77
2022-11-05T02:03:16.208Z,8.79
2022-11-05T02:05:43.504Z,8.74
2022-11-05T02:08:17.852Z,8.69
2022-11-05T02:10:45.917Z,8.66
2022-11-05T02:13:12.843Z,8.61
2022-11-05T02:15:52.865Z,8.53
2022-11-05T02:18:24.721Z,8.36
2022-11-05T02:21:27.922Z,8.57
2022-11-05T02:24:06.382Z,8.61
2022-11-05T02:26:35.810Z,8.64
2022-11-05T02:29:26.724Z,8.61
2022-11-05T02:32:17.868Z,8.57
2022-11-05T02:35:00.561Z,8.47
2022-11-05T02:37:39.528Z,8.46
2022-11-05T02:40:05.901Z,8.41
2022-11-05T02:42:46.758Z,8.41
2022-11-05T02:45:22.731Z,8.41
2022-11-05T02:48:00.721Z,8.44
2022-11-05T02:51:07.262Z,8.49
2022-11-05T02:53:53.656Z,8.46
2022-11-05T02:56:33.770Z,8.42
2022-11-05T02:59:00.289Z,8.41
2022-11-05T03:01:26.870Z,8.47
2022-11-05T03:04:06.623Z,8.49
2022-11-05T03:06:48.708Z,8.46
2022-11-05T03:09:49.234Z,8.48
2022-11-05T03:12:37.686Z,8.48
2022-11-05T03:15:39.348Z,8.48
2022-11-05T03:18:05.786Z,8.40
2022-11-05T03:20:36.805Z,8.40
2022-11-05T03:23:24.761Z,8.36
2022-11-05T03:25:57.707Z,8.36
2022-11-05T03:28:27.247Z,8.33
2022-11-05T03:30:56.866Z,8.34
2022-11-05T03:33:27.558Z,8.33
2022-11-05T03:35:58.153Z,8.37
2022-11-05T03:38:29.253Z,8.41
2022-11-05T03:40:59.900Z,8.44
2022-11-05T03:43:30.542Z,8.37
2022-11-05T03:46:02.044Z,8.36
2022-11-05T03:48:31.422Z,8.39
2022-11-05T03:50:57.894Z,8.33
2022-11-05T03:53:29.502Z,8.24
2022-11-05T03:56:11.642Z,8.27
2022-11-05T03:58:43.858Z,8.18
2022-11-05T04:01:11.137Z,8.11
2022-11-05T04:03:37.722Z,8.08
2022-11-05T04:06:24.864Z,8.02
2022-11-05T04:09:10.376Z,8.03
2022-11-05T04:11:55.702Z,7.96
2022-11-05T04:14:22.328Z,7.95
2022-11-05T04:17:06.953Z,7.93
2022-11-05T04:19:56.715Z,7.89
2022-11-05T04:22:43.181Z,7.88
2022-11-05T04:25:10.290Z,7.85
2022-11-05T04:27:36.866Z,7.85
2022-11-05T04:30:19.295Z,7.79
2022-11-05T04:33:06.828Z,7.79
2022-11-05T04:35:37.626Z,7.76
2022-11-05T04:38:06.188Z,7.69
2022-11-05T04:40:33.077Z,7.76
2022-11-05T04:43:00.275Z,7.73
2022-11-05T04:45:29.332Z,7.68
2022-11-05T04:47:55.797Z,7.71
2022-11-05T04:50:22.971Z,7.68
2022-11-05T04:52:49.528Z,7.65
2022-11-05T04:55:16.208Z,7.63
2022-11-05T04:57:43.109Z,7.59
2022-11-05T05:00:11.179Z,7.55
2022-11-05T05:02:37.992Z,7.48
2022-11-05T05:05:05.506Z,7.47
2022-11-05T05:07:35.125Z,7.46
2022-11-05T05:10:03.188Z,7.47
2022-11-05T05:12:29.806Z,7.54
2022-11-05T05:14:56.414Z,7.52
2022-11-05T05:17:23.231Z,7.53
2022-11-05T05:20:09.024Z,7.53
2022-11-05T05:22:35.531Z,7.53
2022-11-05T05:25:02.323Z,7.53
2022-11-05T05:27:29.567Z,7.51
2022-11-05T05:29:59.943Z,7.48
2022-11-05T05:32:27.102Z,7.45
2022-11-05T05:34:53.667Z,7.41
2022-11-05T05:37:20.305Z,7.35
2022-11-05T05:39:47.848Z,7.47
2022-11-05T05:42:14.998Z,7.45
2022-11-05T05:44:41.564Z,7.43
2022-11-05T05:47:08.092Z,7.41
2022-11-05T05:49:34.686Z,7.43
2022-11-05T05:52:01.263Z,7.42
2022-11-05T05:54:32.119Z,7.40
2022-11-05T05:57:00.017Z,7.36
2022-11-05T05:59:26.546Z,7.39
2022-11-05T06:01:53.163Z,7.39
2022-11-05T06:04:20.591Z,7.42
2022-11-05T06:06:47.122Z,7.42
2022-11-05T06:09:14.528Z,7.38
2022-11-05T06:11:41.590Z,7.41
2022-11-05T06:14:12.551Z,7.42
2022-11-05T06:16:40.040Z,7.44
2022-11-05T06:19:07.152Z,7.46
2022-11-05T06:21:37.336Z,7.47
2022-11-05T06:24:04.290Z,7.45
2022-11-05T06:26:31.092Z,7.48
2022-11-05T06:28:57.605Z,7.48
2022-11-05T06:31:24.847Z,7.49
2022-11-05T06:33:51.573Z,7.54
2022-11-05T06:36:19.364Z,7.59
2022-11-05T06:38:46.507Z,7.67
2022-11-05T06:41:13.220Z,7.80
2022-11-05T06:43:39.859Z,8.49
2022-11-05T06:46:06.704Z,9.59
2022-11-05T06:48:33.983Z,10.66
2022-11-05T06:51:00.762Z,11.23
2022-11-05T06:53:27.748Z,11.95
2022-11-05T06:55:54.271Z,12.50
2022-11-05T06:58:20.894Z,12.97
2022-11-05T07:00:56.602Z,13.43
2022-11-05T07:03:23.159Z,14.09
2022-11-05T07:05:51.028Z,14.44
2022-11-05T07:08:17.770Z,14.88
2022-11-05T07:10:44.838Z,15.15
2022-11-05T07:13:12.013Z,15.50
2022-11-05T07:15:39.062Z,15.72
2022-11-05T07:18:07.529Z,15.56
2022-11-05T07:20:34.771Z,16.19
2022-11-05T07:23:06.275Z,16.73
2022-11-05T07:25:34.180Z,16.96
2022-11-05T07:28:01.146Z,17.10
2022-11-05T07:30:29.055Z,16.75
2022-11-05T07:32:55.677Z,17.51
2022-11-05T07:35:22.278Z,18.17
2022-11-05T07:37:51.027Z,18.61
2022-11-05T07:40:21.951Z,18.77
2022-11-05T07:42:51.352Z,18.89
2022-11-05T07:45:18.905Z,20.00
2022-11-05T07:47:56.683Z,20.60
2022-11-05T07:50:25.979Z,19.86
2022-11-05T07:52:52.790Z,19.14
2022-11-05T07:55:20.344Z,19.22
2022-11-05T07:57:49.824Z,17.96
2022-11-05T08:00:20.167Z,17.47
2022-11-05T08:02:59.708Z,17.08
2022-11-05T08:05:31.895Z,16.85
2022-11-05T08:07:58.447Z,17.44
2022-11-05T08:10:25.418Z,17.55
2022-11-05T08:12:56.232Z,18.72
2022-11-05T08:15:23.832Z,19.74
2022-11-05T08:17:50.848Z,19.32
2022-11-05T08:20:17.683Z,19.58
2022-11-05T08:22:44.937Z,19.39
2022-11-05T08:25:13.173Z,20.00
2022-11-05T08:27:40.276Z,20.13
2022-11-05T08:30:09.528Z,19.81
2022-11-05T08:32:36.146Z,19.92
2022-11-05T08:35:03.077Z,20.28
2022-11-05T08:37:29.618Z,19.82
2022-11-05T08:39:56.191Z,20.15
2022-11-05T08:42:22.723Z,20.99
2022-11-05T08:44:49.266Z,21.20
2022-11-05T08:47:15.816Z,20.84
2022-11-05T08:49:42.344Z,20.42
2022-11-05T08:52:08.910Z,20.31
2022-11-05T08:54:35.542Z,20.41
2022-11-05T08:57:02.151Z,19.92
2022-11-05T08:59:29.834Z,19.64
2022-11-05T09:01:56.485Z,20.40
2022-11-05T09:04:23.245Z,20.25
2022-11-05T09:06:49.775Z,20.18
2022-11-05T09:09:16.284Z,20.40
2022-11-05T09:12:10.496Z,20.33
2022-11-05T09:14:30.147Z,20.44
2022-11-05T09:16:56.706Z,19.82
2022-11-05T09:19:23.243Z,20.38
2022-11-05T09:21:49.738Z,21.34
2022-11-05T09:24:16.317Z,22.00
2022-11-05T09:26:42.820Z,22.70
2022-11-05T09:29:14.252Z,22.74
2022-11-05T09:31:41.383Z,22.25
2022-11-05T09:34:07.976Z,22.73
2022-11-05T09:36:34.462Z,21.94
2022-11-05T09:39:01.118Z,22.76
2022-11-05T09:41:32.043Z,23.11
2022-11-05T09:44:23.934Z,22.81
2022-11-05T09:47:05.113Z,22.25
2022-11-05T09:49:41.132Z,23.12
2022-11-05T09:52:18.451Z,22.17
2022-11-05T09:54:46.042Z,22.79
2022-11-05T09:57:17.142Z,23.14
2022-11-05T09:59:48.406Z,22.69
2022-11-05T10:02:25.556Z,21.67
2022-11-05T10:04:58.282Z,22.80
2022-11-05T10:07:28.167Z,22.19
2022-11-05T10:10:07.777Z,21.60
2022-11-05T10:12:46.546Z,21.53
2022-11-05T10:15:19.641Z,21.69
2022-11-05T10:17:54.618Z,21.38
2022-11-05T10:20:34.782Z,21.93
2022-11-05T10:23:16.697Z,21.81
2022-11-05T10:25:48.610Z,22.15
2022-11-05T10:28:20.116Z,22.12
2022-11-05T10:30:50.031Z,22.48
2022-11-05T10:33:29.369Z,21.99
2022-11-05T10:36:02.851Z,22.59
2022-11-05T10:38:29.512Z,22.55
2022-11-05T10:41:05.444Z,22.09
2022-11-05T10:43:41.812Z,22.58
2022-11-05T10:46:36.461Z,21.80
2022-11-05T10:49:34.123Z,22.47
2022-11-05T10:52:20.569Z,21.35
2022-11-05T10:54:49.884Z,21.48
2022-11-05T10:57:28.414Z,21.72
2022-11-05T11:00:15.095Z,21.18
2022-11-05T11:02:49.616Z,20.59
2022-11-05T11:05:30.029Z,20.84
2022-11-05T11:08:11.590Z,20.63
2022-11-05T11:10:48.846Z,20.59
2022-11-05T11:13:26.823Z,20.10
2022-11-05T11:15:53.900Z,20.40
2022-11-05T11:18:40.099Z,20.77
2022-11-05T11:21:14.716Z,20.78
2022-11-05T11:23:43.354Z,21.06
2022-11-05T11:26:14.651Z,20.86
2022-11-05T11:28:47.287Z,21.00
2022-11-05T11:31:22.250Z,21.43
2022-11-05T11:33:56.833Z,21.65
2022-11-05T11:36:33.024Z,21.84
2022-11-05T11:39:04.326Z,21.16
2022-11-05T11:41:43.081Z,20.16
2022-11-05T11:44:17.596Z,20.87
2022-11-05T11:46:49.552Z,20.84
2022-11-05T11:49:46.568Z,20.76
2022-11-05T11:52:16.154Z,20.49
2022-11-05T11:54:43.107Z,20.87
2022-11-05T11:57:27.231Z,21.66
2022-11-05T12:00:08.472Z,20.87
2022-11-05T12:03:02.487Z,20.70
2022-11-05T12:05:29.064Z,20.76
2022-11-05T12:08:01.301Z,20.85
2022-11-05T12:10:52.516Z,20.23
2022-11-05T12:13:20.492Z,21.01
2022-11-05T12:16:00.796Z,21.00
2022-11-05T12:18:45.993Z,21.32
2022-11-05T12:21:47.748Z,21.21
2022-11-05T12:24:26.171Z,20.60
2022-11-05T12:27:05.450Z,20.80
2022-11-05T12:29:37.818Z,20.95
2022-11-05T12:32:25.577Z,20.71
2022-11-05T12:35:13.761Z,20.33
2022-11-05T12:37:46.377Z,20.71
2022-11-05T12:40:40.819Z,20.37
2022-11-05T12:43:23.147Z,20.24
2022-11-05T12:46:14.308Z,20.01
2022-11-05T12:49:13.143Z,19.94
2022-11-05T12:52:30.444Z,20.02
2022-11-05T12:55:11.146Z,20.12
2022-11-05T12:57:41.643Z,19.78
2022-11-05T13:00:18.563Z,19.98
2022-11-05T13:02:54.550Z,20.19
2022-11-05T13:05:39.112Z,20.11
2022-11-05T13:08:21.640Z,19.32
2022-11-05T13:11:08.725Z,19.42
2022-11-05T13:14:15.897Z,19.37
2022-11-05T13:16:47.819Z,19.30
2022-11-05T13:19:24.562Z,19.08
2022-11-05T13:21:56.764Z,19.11
2022-11-05T13:24:23.225Z,19.30
2022-11-05T13:26:55.417Z,19.24
2022-11-05T13:29:32.747Z,19.09
2022-11-05T13:32:08.247Z,19.16
2022-11-05T13:34:37.704Z,19.13
2022-11-05T13:37:25.358Z,19.21
2022-11-05T13:40:01.678Z,19.01
2022-11-05T13:42:57.739Z,18.77
2022-11-05T13:46:01.404Z,18.84
2022-11-05T13:48:57.515Z,18.83
2022-11-05T13:51:47.597Z,18.87
2022-11-05T13:54:33.263Z,18.87
2022-11-05T13:57:20.775Z,18.80
2022-11-05T13:59:59.438Z,18.82
2022-11-05T14:02:31.258Z,18.60
2022-11-05T14:05:02.506Z,18.72
2022-11-05T14:07:32.376Z,18.71
2022-11-05T14:10:07.277Z,18.44
2022-11-05T14:12:39.907Z,18.62
2022-11-05T14:15:09.412Z,18.75
2022-11-05T14:18:00.981Z,18.64
2022-11-05T14:20:30.434Z,18.55
2022-11-05T14:23:25.099Z,18.58
2022-11-05T14:25:57.360Z,18.62
2022-11-05T14:28:36.343Z,18.66
2022-11-05T14:31:04.758Z,18.57
2022-11-05T14:33:38.614Z,18.62
2022-11-05T14:36:33.341Z,18.56
2022-11-05T14:39:13.496Z,18.54
2022-11-05T14:41:55.454Z,18.29
2022-11-05T14:44:23.398Z,18.26
2022-11-05T14:46:52.280Z,18.29
2022-11-05T14:49:25.844Z,18.41
2022-11-05T14:51:55.929Z,18.28
2022-11-05T14:54:27.879Z,18.29
2022-11-05T14:57:00.103Z,18.31
2022-11-05T14:59:31.710Z,18.29
2022-11-05T15:02:03.930Z,18.13
2022-11-05T15:04:40.519Z,18.10
2022-11-05T15:07:07.051Z,18.09
2022-11-05T15:09:53.715Z,18.04
2022-11-05T15:12:35.420Z,17.99
2022-11-05T15:15:03.937Z,17.71
2022-11-05T15:17:37.296Z,17.68
2022-11-05T15:20:06.520Z,17.81
2022-11-05T15:22:37.489Z,17.68
2022-11-05T15:25:05.651Z,17.63
2022-11-05T15:27:34.868Z,17.53
2022-11-05T15:30:31.032Z,17.42
2022-11-05T15:33:18.940Z,17.20
2022-11-05T15:35:45.557Z,17.23
2022-11-05T15:38:30.006Z,17.13
2022-11-05T15:41:27.536Z,16.97
2022-11-05T15:43:54.187Z,16.83
2022-11-05T15:46:24.545Z,16.81
2022-11-05T15:49:12.824Z,16.75
2022-11-05T15:51:39.470Z,16.47
2022-11-05T15:54:29.068Z,16.39
2022-11-05T15:56:58.094Z,16.32
2022-11-05T15:59:26.793Z,16.07
2022-11-05T16:01:56.645Z,16.06
2022-11-05T16:04:27.591Z,15.81
2022-11-05T16:07:01.516Z,15.85
2022-11-05T16:09:30.587Z,15.52
2022-11-05T16:12:18.213Z,15.52
2022-11-05T16:15:06.899Z,15.19
2022-11-05T16:17:39.295Z,15.17
2022-11-05T16:20:23.069Z,14.99
2022-11-05T16:22:56.397Z,14.72
2022-11-05T16:25:31.411Z,14.70
2022-11-05T16:27:59.695Z,14.55
2022-11-05T16:30:26.693Z,14.40
2022-11-05T16:32:54.021Z,14.26
2022-11-05T16:35:25.326Z,14.17
2022-11-05T16:37:52.722Z,14.07
2022-11-05T16:40:22.604Z,13.87
2022-11-05T16:42:51.554Z,13.76
2022-11-05T16:45:22.090Z,13.76
2022-11-05T16:47:48.897Z,13.55
2022-11-05T16:50:23.343Z,13.73
2022-11-05T16:52:49.892Z,13.65
2022-11-05T16:55:17.744Z,13.71
2022-11-05T16:57:47.786Z,13.50
2022-11-05T17:00:17.223Z,13.39
2022-11-05T17:02:44.133Z,13.30
2022-11-05T17:05:29.667Z,13.43
2022-11-05T17:07:56.898Z,13.22
2022-11-05T17:10:25.535Z,13.22
2022-11-05T17:12:52.792Z,13.14
2022-11-05T17:15:22.764Z,13.04
2022-11-05T17:17:50.188Z,12.86
2022-11-05T17:20:40.877Z,12.76
2022-11-05T17:23:14.982Z,12.54
2022-11-05T17:25:44.017Z,12.56
2022-11-05T17:28:11.295Z,12.59
2022-11-05T17:30:41.481Z,12.48
2022-11-05T17:33:10.426Z,12.53
2022-11-05T17:35:40.920Z,12.51
2022-11-05T17:38:07.996Z,12.42
2022-11-05T17:40:36.275Z,12.38
2022-11-05T17:43:03.769Z,12.36
2022-11-05T17:45:30.511Z,12.09
2022-11-05T17:47:57.117Z,12.02
2022-11-05T17:50:24.516Z,12.14
2022-11-05T17:52:51.258Z,12.15
2022-11-05T17:55:17.882Z,12.01
2022-11-05T17:57:46.833Z,12.10
2022-11-05T18:00:14.359Z,12.11
2022-11-05T18:02:41.047Z,12.09
2022-11-05T18:05:08.144Z,11.89
2022-11-05T18:07:34.706Z,11.84
2022-11-05T18:10:01.256Z,11.62
2022-11-05T18:12:27.828Z,11.75
2022-11-05T18:14:54.349Z,11.57
2022-11-05T18:17:20.926Z,11.44
2022-11-05T18:19:47.747Z,11.49
2022-11-05T18:22:16.237Z,11.43
2022-11-05T18:24:42.800Z,11.25
2022-11-05T18:27:09.324Z,11.21
2022-11-05T18:29:36.206Z,11.43
2022-11-05T18:32:03.032Z,11.20
2022-11-05T18:34:29.683Z,11.17
2022-11-05T18:36:56.814Z,11.10
2022-11-05T18:39:23.722Z,11.16
2022-11-05T18:41:50.268Z,11.11
2022-11-05T18:44:17.076Z,11.04
2022-11-05T18:46:57.658Z,11.11
2022-11-05T18:49:25.992Z,10.99
2022-11-05T18:51:52.586Z,10.83
2022-11-05T18:54:19.104Z,10.74
2022-11-05T18:56:46.007Z,10.86
2022-11-05T19:02:00.758Z,10.93
2022-11-05T19:04:27.473Z,10.90
2022-11-05T19:06:54.388Z,10.71
2022-11-05T19:09:21.074Z,10.77
2022-11-05T19:11:47.775Z,10.76
2022-11-05T19:14:14.408Z,10.74
2022-11-05T19:16:41.034Z,10.83
2022-11-05T19:19:07.750Z,10.82
2022-11-05T19:21:34.368Z,10.74
2022-11-05T19:24:02.493Z,10.67
2022-11-05T19:26:29.897Z,10.64
2022-11-05T19:29:01.798Z,10.59
2022-11-05T19:31:28.716Z,10.50
2022-11-05T19:33:55.347Z,10.44
2022-11-05T19:36:23.863Z,10.48
2022-11-05T19:38:57.551Z,10.35
2022-11-05T19:41:25.188Z,10.31
2022-11-05T19:43:54.523Z,10.37
2022-11-05T19:46:23.053Z,10.20
2022-11-05T19:48:50.531Z,10.16
2022-11-05T19:51:23.698Z,10.10
2022-11-05T19:53:52.692Z,10.33
2022-11-05T19:56:24.147Z,10.44
2022-11-05T19:58:52.008Z,10.39
2022-11-05T20:01:20.785Z,10.37
2022-11-05T20:03:47.759Z,10.68
2022-11-05T20:06:21.667Z,10.76
2022-11-05T20:09:15.233Z,10.68
2022-11-05T20:11:39.961Z,10.80
2022-11-05T20:14:08.155Z,10.58
2022-11-05T20:16:39.954Z,10.57
2022-11-05T20:19:10.196Z,10.47
2022-11-05T20:21:37.235Z,10.41
2022-11-05T20:24:04.286Z,10.17
2022-11-05T20:26:31.709Z,10.31
2022-11-05T20:28:58.654Z,10.16
2022-11-05T20:31:25.259Z,10.03
2022-11-05T20:33:52.347Z,10.02
2022-11-05T20:36:22.207Z,9.96
2022-11-05T20:38:50.351Z,9.77
2022-11-05T20:41:17.565Z,9.86
2022-11-05T20:43:44.270Z,9.80
2022-11-05T20:46:14.131Z,9.80
2022-11-05T20:48:43.629Z,9.67
2022-11-05T20:51:13.548Z,9.77
2022-11-05T20:53:40.405Z,9.65
2022-11-05T20:56:10.476Z,9.82
2022-11-05T20:58:37.849Z,9.92
2022-11-05T21:01:05.392Z,9.73
2022-11-05T21:03:32.488Z,9.83
2022-11-05T21:06:04.163Z,9.88
2022-11-05T21:08:30.714Z,9.62
2022-11-05T21:10:57.753Z,9.76
2022-11-05T21:13:25.136Z,9.63
2022-11-05T21:15:53.899Z,9.66
2022-11-05T21:18:22.742Z,9.57
2022-11-05T21:20:50.438Z,9.58
2022-11-05T21:23:17.604Z,9.35
2022-11-05T21:25:45.156Z,9.45
2022-11-05T21:28:13.450Z,9.48
2022-11-05T21:30:45.065Z,9.57
2022-11-05T21:33:13.389Z,9.67
2022-11-05T21:35:41.458Z,9.52
2022-11-05T21:38:08.141Z,9.62
2022-11-05T21:40:34.812Z,9.48
2022-11-05T21:43:01.568Z,9.44
2022-11-05T21:45:28.278Z,9.47
2022-11-05T21:47:55.360Z,9.50
2022-11-05T21:50:44.615Z,9.30
2022-11-05T21:53:34.075Z,9.41
2022-11-05T21:56:20.160Z,9.27
2022-11-05T21:59:05.291Z,9.06
2022-11-05T22:01:31.969Z,9.12
2022-11-05T22:04:02.796Z,8.96
2022-11-05T22:06:32.904Z,9.02
2022-11-05T22:08:59.489Z,9.13
2022-11-05T22:11:26.090Z,8.93
2022-11-05T22:13:53.525Z,8.96
2022-11-05T22:16:20.238Z,9.09
2022-11-05T22:18:46.796Z,9.02
2022-11-05T22:21:18.299Z,8.92
2022-11-05T22:23:44.904Z,8.80
2022-11-05T22:26:11.511Z,8.89
2022-11-05T22:28:38.064Z,8.76
2022-11-05T22:31:04.618Z,8.91
2022-11-05T22:33:31.490Z,8.72
2022-11-05T22:35:57.982Z,8.83
2022-11-05T22:38:24.548Z,8.80
2022-11-05T22:40:51.067Z,8.76
2022-11-05T22:43:17.566Z,8.74
2022-11-05T22:45:44.047Z,8.78
2022-11-05T22:48:10.945Z,8.74
2022-11-05T22:50:38.183Z,8.69
2022-11-05T22:53:04.692Z,8.72
2022-11-05T22:55:31.282Z,8.72
2022-11-05T22:57:57.780Z,8.68
2022-11-05T23:00:35.776Z,8.73
2022-11-05T23:03:03.123Z,8.65
2022-11-05T23:05:30.031Z,8.63
2022-11-05T23:08:15.428Z,8.57
2022-11-05T23:11:01.104Z,8.52
2022-11-05T23:13:28.839Z,8.55
2022-11-05T23:16:14.455Z,8.46
2022-11-05T23:18:59.770Z,8.50
2022-11-05T23:21:44.926Z,8.51
2022-11-05T23:24:12.799Z,8.44
2022-11-05T23:26:52.305Z,8.44
2022-11-05T23:29:24.919Z,8.45
2022-11-05T23:32:11.105Z,8.34
2022-11-05T23:34:38.355Z,8.39
2022-11-05T23:37:23.469Z,8.36
2022-11-05T23:39:50.431Z,8.30
2022-11-05T23:42:36.391Z,8.30
2022-11-05T23:45:23.152Z,8.34
2022-11-05T23:48:08.372Z,8.29
2022-11-05T23:50:39.471Z,8.39
2022-11-05T23:53:07.430Z,8.49
2022-11-05T23:55:34.283Z,8.60
2022-11-05T23:58:00.807Z,8.65
